Time;durP1;ratioP1;P1;durP2;ratioP2;P2;SDS_P1;SDS_P2;PMS_P1;PMS_P2;Temp;Humidity;BMP_temperature;BMP_pressure;BME280_temperature;BME280_humidity;BME280_pressure;Samples;Min_cycle;Max_cycle;Signal;HPM_P1;HPM_P2
2024/03/30 00:00:03;;;;;;;5.80;3.50;;;11.00;99.90;;;;;;7364641;19;20022;-63
2024/03/30 00:02:38;;;;;;;5.13;3.33;;;10.90;99.90;;;;;;7369757;19;20490;-62
2024/03/30 00:05:04;;;;;;;4.32;3.50;;;10.90;99.90;;;;;;7362248;19;20396;-63
2024/03/30 00:07:30;;;;;;;4.63;3.20;;;10.90;99.90;;;;;;7364431;19;20035;-62
2024/03/30 00:09:57;;;;;;;5.65;3.40;;;10.90;99.90;;;;;;7366248;19;20026;-63
2024/03/30 00:12:23;;;;;;;7.60;3.58;;;10.80;99.90;;;;;;7366810;19;20021;-62
2024/03/30 00:14:50;;;;;;;7.43;3.65;;;10.90;99.90;;;;;;7365532;19;20447;-63
2024/03/30 00:17:16;;;;;;;4.10;3.17;;;10.90;99.90;;;;;;7363458;19;20026;-61
2024/03/30 00:19:43;;;;;;;4.72;3.55;;;10.90;99.90;;;;;;7369476;19;20370;-61
2024/03/30 00:22:09;;;;;;;6.75;3.60;;;10.80;99.90;;;;;;7365982;19;20011;-62
2024/03/30 00:24:35;;;;;;;4.60;3.35;;;10.80;99.90;;;;;;7369641;19;20019;-61
2024/03/30 00:27:01;;;;;;;5.13;3.30;;;10.80;99.90;;;;;;7368622;19;20371;-62
2024/03/30 00:29:27;;;;;;;5.82;3.33;;;10.80;99.90;;;;;;7371214;19;20029;-63
2024/03/30 00:31:54;;;;;;;5.30;3.13;;;10.80;99.90;;;;;;7364411;19;20784;-61
2024/03/30 00:34:20;;;;;;;5.85;3.80;;;10.80;99.90;;;;;;7370629;19;20056;-62
2024/03/30 00:36:46;;;;;;;4.78;3.00;;;10.80;99.90;;;;;;7367911;19;20034;-61
2024/03/30 00:39:12;;;;;;;4.35;3.10;;;10.70;99.90;;;;;;7367515;19;20019;-61
2024/03/30 00:41:39;;;;;;;4.28;3.22;;;10.70;99.90;;;;;;7367047;19;20461;-62
2024/03/30 00:44:05;;;;;;;6.22;3.53;;;10.70;99.90;;;;;;7368183;19;20081;-62
2024/03/30 00:46:32;;;;;;;7.25;3.50;;;10.70;99.90;;;;;;7366378;19;20022;-61
2024/03/30 00:48:58;;;;;;;3.20;2.65;;;10.70;99.90;;;;;;7364813;19;20492;-61
2024/03/30 00:51:25;;;;;;;4.55;3.00;;;10.70;99.90;;;;;;7364578;19;20780;-63
2024/03/30 00:53:51;;;;;;;5.55;3.10;;;10.70;99.90;;;;;;7370385;19;20015;-63
2024/03/30 00:56:17;;;;;;;3.00;2.40;;;10.70;99.90;;;;;;7373392;19;20065;-64
2024/03/30 00:58:43;;;;;;;6.10;2.42;;;10.70;99.90;;;;;;7377208;19;20018;-61
2024/03/30 01:01:10;;;;;;;4.40;2.25;;;10.70;99.90;;;;;;7369551;19;20604;-63
2024/03/30 01:03:36;;;;;;;4.93;2.20;;;10.70;99.90;;;;;;7375912;19;20030;-62
2024/03/30 01:06:03;;;;;;;4.18;2.40;;;10.80;99.90;;;;;;7369578;19;20044;-63
2024/03/30 01:08:29;;;;;;;3.35;2.22;;;10.80;99.90;;;;;;7372898;19;20014;-63
2024/03/30 01:11:00;;;;;;;4.10;2.40;;;10.80;99.90;;;;;;7366109;19;20078;-63
2024/03/30 01:13:26;;;;;;;3.90;2.40;;;10.80;99.90;;;;;;7374682;19;20424;-61
2024/03/30 01:15:53;;;;;;;4.13;2.40;;;10.70;99.90;;;;;;7373037;19;20122;-61
2024/03/30 01:18:22;;;;;;;3.92;2.20;;;10.70;99.90;;;;;;7369727;19;20062;-62
2024/03/30 01:20:51;;;;;;;4.40;2.40;;;10.70;99.90;;;;;;7371865;19;20018;-63
2024/03/30 01:23:21;;;;;;;3.15;2.10;;;10.70;99.90;;;;;;7372142;19;20014;-63
2024/03/30 01:25:49;;;;;;;4.15;2.17;;;10.60;99.90;;;;;;7366804;19;20501;-63
2024/03/30 01:28:16;;;;;;;3.15;2.13;;;10.70;99.90;;;;;;7372732;19;20022;-63
2024/03/30 01:30:43;;;;;;;4.97;2.55;;;10.60;99.90;;;;;;7371498;19;20030;-63
2024/03/30 01:33:09;;;;;;;3.38;2.30;;;10.70;99.90;;;;;;7370390;19;20500;-63
2024/03/30 01:35:35;;;;;;;3.08;2.03;;;10.60;99.90;;;;;;7372957;19;20029;-64
2024/03/30 01:38:01;;;;;;;4.32;2.47;;;10.60;99.90;;;;;;7369487;19;20022;-63
2024/03/30 01:40:32;;;;;;;3.08;2.25;;;10.60;99.90;;;;;;7369731;19;20026;-63
2024/03/30 01:43:02;;;;;;;2.85;2.00;;;10.60;99.90;;;;;;7373009;19;20035;-63
2024/03/30 01:45:40;;;;;;;3.38;2.40;;;10.50;99.90;;;;;;7371810;19;20033;-62
2024/03/30 01:48:10;;;;;;;3.38;2.05;;;10.50;99.90;;;;;;7368776;19;20014;-64
2024/03/30 01:50:42;;;;;;;3.85;2.50;;;10.50;99.90;;;;;;7372187;19;20755;-64
2024/03/30 01:53:15;;;;;;;2.97;2.00;;;10.40;99.90;;;;;;7370981;19;20752;-62
2024/03/30 01:55:44;;;;;;;4.13;2.05;;;10.40;99.90;;;;;;7373149;19;20036;-63
2024/03/30 01:58:18;;;;;;;4.07;1.90;;;10.30;99.90;;;;;;7370932;19;20022;-62
2024/03/30 02:00:46;;;;;;;2.50;1.83;;;10.30;99.90;;;;;;7372642;19;20504;-64
2024/03/30 02:03:13;;;;;;;3.20;2.00;;;10.20;99.90;;;;;;7369680;19;20022;-62
2024/03/30 02:05:40;;;;;;;2.95;1.77;;;10.20;99.90;;;;;;7369595;19;20037;-61
2024/03/30 02:08:08;;;;;;;3.08;2.25;;;10.20;99.90;;;;;;7369998;19;20086;-62
2024/03/30 02:10:35;;;;;;;3.50;2.28;;;10.10;99.90;;;;;;7372801;19;20054;-63
2024/03/30 02:13:01;;;;;;;3.08;2.60;;;10.10;99.90;;;;;;7370479;19;20083;-63
2024/03/30 02:15:28;;;;;;;4.00;2.47;;;10.10;99.90;;;;;;7371097;19;20018;-61
2024/03/30 02:17:54;;;;;;;5.15;2.78;;;10.10;99.90;;;;;;7369926;19;20123;-64
2024/03/30 02:20:20;;;;;;;4.45;2.72;;;10.10;99.90;;;;;;7374974;19;20872;-63
2024/03/30 02:22:54;;;;;;;4.00;2.58;;;10.00;99.90;;;;;;7370111;19;20017;-61
2024/03/30 02:25:21;;;;;;;4.55;2.72;;;10.00;99.90;;;;;;7368203;19;20022;-63
2024/03/30 02:27:48;;;;;;;4.60;2.90;;;10.00;99.90;;;;;;7372036;19;20019;-61
2024/03/30 02:30:28;;;;;;;4.47;2.95;;;10.00;99.90;;;;;;7368340;19;20024;-63
2024/03/30 02:32:56;;;;;;;3.67;2.60;;;9.90;99.90;;;;;;7370635;19;20494;-61
2024/03/30 02:35:22;;;;;;;3.47;2.80;;;9.90;99.90;;;;;;7367472;19;20022;-63
2024/03/30 02:37:49;;;;;;;3.47;2.92;;;10.00;99.90;;;;;;7372796;19;20022;-62
2024/03/30 02:40:16;;;;;;;4.50;3.22;;;10.00;99.90;;;;;;7369936;19;20018;-61
2024/03/30 02:42:42;;;;;;;4.50;3.08;;;10.00;99.90;;;;;;7369632;19;20917;-61
2024/03/30 02:45:10;;;;;;;6.40;3.45;;;9.90;99.90;;;;;;7364302;19;20775;-62
2024/03/30 02:47:36;;;;;;;4.65;3.13;;;10.00;99.90;;;;;;7368195;19;20018;-63
2024/03/30 02:50:02;;;;;;;6.55;4.53;;;10.00;99.90;;;;;;7368181;19;20036;-61
2024/03/30 02:52:29;;;;;;;6.03;4.00;;;10.00;99.90;;;;;;7369975;19;20025;-63
2024/03/30 02:54:55;;;;;;;5.65;3.38;;;10.00;99.90;;;;;;7366441;19;20022;-63
2024/03/30 02:57:21;;;;;;;6.28;4.22;;;10.00;99.90;;;;;;7372754;19;20046;-61
2024/03/30 02:59:47;;;;;;;5.18;4.45;;;9.90;99.90;;;;;;7370856;19;20483;-62
2024/03/30 03:02:13;;;;;;;5.78;3.85;;;9.90;99.90;;;;;;7369634;19;20018;-63
2024/03/30 03:04:39;;;;;;;5.15;4.13;;;9.90;99.90;;;;;;7369058;19;20357;-63
2024/03/30 03:07:06;;;;;;;5.03;4.30;;;9.90;99.90;;;;;;7363328;19;20033;-61
2024/03/30 03:09:33;;;;;;;6.20;4.63;;;10.00;99.90;;;;;;7372889;19;20018;-61
2024/03/30 03:12:03;;;;;;;5.90;4.75;;;10.00;99.90;;;;;;7361984;19;20033;-62
2024/03/30 03:14:29;;;;;;;5.10;4.18;;;9.90;99.90;;;;;;7372048;19;20026;-63
2024/03/30 03:16:55;;;;;;;7.20;4.53;;;9.90;99.90;;;;;;7366776;19;20097;-63
2024/03/30 03:19:22;;;;;;;6.47;4.78;;;9.90;99.90;;;;;;7371367;19;20679;-61
2024/03/30 03:21:48;;;;;;;5.68;5.07;;;9.90;99.90;;;;;;7366161;19;20104;-61
2024/03/30 03:24:15;;;;;;;6.55;5.00;;;9.90;99.90;;;;;;7369803;19;20443;-61
2024/03/30 03:26:41;;;;;;;5.95;4.85;;;9.90;99.90;;;;;;7371652;19;20018;-61
2024/03/30 03:29:07;;;;;;;5.40;4.72;;;10.00;99.90;;;;;;7368286;19;20375;-63
2024/03/30 03:31:33;;;;;;;7.38;4.80;;;9.90;99.90;;;;;;7367596;19;20025;-64
2024/03/30 03:33:59;;;;;;;6.93;4.60;;;9.90;99.90;;;;;;7368118;19;20024;-66
2024/03/30 03:36:26;;;;;;;5.03;4.30;;;9.90;99.90;;;;;;7368386;19;20018;-61
2024/03/30 03:38:52;;;;;;;5.65;4.72;;;10.00;99.90;;;;;;7370432;19;20018;-63
2024/03/30 03:41:18;;;;;;;6.43;5.05;;;10.00;99.90;;;;;;7369061;19;21056;-63
2024/03/30 03:43:44;;;;;;;5.10;4.60;;;9.90;99.90;;;;;;7368866;19;20024;-63
2024/03/30 03:46:10;;;;;;;6.05;4.43;;;10.00;99.90;;;;;;7364271;19;20022;-64
2024/03/30 03:48:36;;;;;;;5.53;4.35;;;9.90;99.90;;;;;;7368431;19;20097;-62
2024/03/30 03:51:03;;;;;;;5.90;4.90;;;9.90;99.90;;;;;;7368585;19;20056;-63
2024/03/30 03:53:29;;;;;;;6.97;4.70;;;9.90;99.90;;;;;;7367402;19;20117;-62
2024/03/30 03:55:55;;;;;;;7.40;4.93;;;9.90;99.90;;;;;;7366146;19;20019;-62
2024/03/30 03:58:21;;;;;;;7.00;4.85;;;9.80;99.90;;;;;;7369036;19;20668;-62
2024/03/30 04:00:47;;;;;;;7.32;5.32;;;9.80;99.90;;;;;;7368224;19;20037;-61
2024/03/30 04:03:14;;;;;;;6.13;5.53;;;9.80;99.90;;;;;;7367561;19;20010;-63
2024/03/30 04:05:40;;;;;;;7.88;6.47;;;9.80;99.90;;;;;;7370059;19;20010;-61
2024/03/30 04:08:06;;;;;;;7.80;6.10;;;9.70;99.90;;;;;;7368652;19;20664;-62
2024/03/30 04:10:32;;;;;;;7.15;5.75;;;9.70;99.90;;;;;;7369024;19;20734;-61
2024/03/30 04:12:59;;;;;;;9.40;6.65;;;9.70;99.90;;;;;;7364511;19;20018;-63
2024/03/30 04:15:25;;;;;;;10.07;7.40;;;9.70;99.90;;;;;;7370111;19;20569;-63
2024/03/30 04:17:52;;;;;;;7.72;6.82;;;9.70;99.90;;;;;;7371000;19;20019;-61
2024/03/30 04:20:18;;;;;;;9.85;8.07;;;9.70;99.90;;;;;;7367408;19;20046;-62
2024/03/30 04:22:44;;;;;;;12.07;8.05;;;9.70;99.90;;;;;;7367489;19;20018;-63
2024/03/30 04:25:11;;;;;;;11.48;9.00;;;9.70;99.90;;;;;;7364342;19;20018;-64
2024/03/30 04:27:37;;;;;;;12.25;9.02;;;9.60;99.90;;;;;;7362585;19;20101;-63
2024/03/30 04:30:07;;;;;;;11.02;9.93;;;9.60;99.90;;;;;;7370695;19;20023;-61
2024/03/30 04:32:36;;;;;;;10.85;9.55;;;9.70;99.90;;;;;;7364089;19;20022;-62
2024/03/30 04:35:03;;;;;;;9.82;8.93;;;9.60;99.90;;;;;;7366978;19;20026;-63
2024/03/30 04:37:29;;;;;;;11.10;9.95;;;9.60;99.90;;;;;;7368458;19;20011;-61
2024/03/30 04:39:55;;;;;;;10.77;9.70;;;9.60;99.90;;;;;;7365530;19;20018;-63
2024/03/30 04:42:22;;;;;;;11.05;9.88;;;9.60;99.90;;;;;;7369448;19;20043;-63
2024/03/30 04:44:49;;;;;;;11.80;9.43;;;9.60;99.90;;;;;;7364917;19;20024;-61
2024/03/30 04:47:15;;;;;;;12.13;10.55;;;9.60;99.90;;;;;;7369645;19;20034;-63
2024/03/30 04:49:41;;;;;;;12.15;10.35;;;9.60;99.90;;;;;;7365960;19;20046;-63
2024/03/30 04:52:07;;;;;;;12.55;11.25;;;9.60;99.90;;;;;;7368645;19;20022;-63
2024/03/30 04:54:34;;;;;;;12.13;10.93;;;9.60;99.90;;;;;;7367354;19;20025;-63
2024/03/30 04:57:00;;;;;;;13.05;11.77;;;9.60;99.90;;;;;;7364326;19;20062;-61
2024/03/30 04:59:27;;;;;;;14.27;12.88;;;9.60;99.90;;;;;;7366095;19;20019;-61
2024/03/30 05:01:53;;;;;;;14.95;12.93;;;9.60;99.90;;;;;;7361660;19;20771;-61
2024/03/30 05:04:19;;;;;;;14.25;12.75;;;9.60;99.90;;;;;;7366510;19;20019;-60
2024/03/30 05:06:45;;;;;;;14.00;12.40;;;9.70;99.90;;;;;;7363800;19;20022;-62
2024/03/30 05:09:12;;;;;;;14.15;12.70;;;9.60;99.90;;;;;;7365708;19;20022;-62
2024/03/30 05:11:38;;;;;;;14.45;12.80;;;9.60;99.90;;;;;;7361071;19;20041;-63
2024/03/30 05:14:04;;;;;;;14.90;13.50;;;9.60;99.90;;;;;;7369336;19;20032;-62
2024/03/30 05:16:30;;;;;;;14.80;13.30;;;9.60;99.90;;;;;;7361071;19;20026;-62
2024/03/30 05:18:59;;;;;;;17.77;15.15;;;9.60;99.90;;;;;;7366005;19;20014;-62
2024/03/30 05:21:26;;;;;;;16.80;15.15;;;9.60;99.90;;;;;;7367494;19;20014;-63
2024/03/30 05:23:52;;;;;;;15.95;14.35;;;9.60;99.90;;;;;;7366295;19;20018;-62
2024/03/30 05:26:19;;;;;;;16.88;15.07;;;9.60;99.90;;;;;;7358687;19;20017;-61
2024/03/30 05:28:45;;;;;;;16.90;15.07;;;9.60;99.90;;;;;;7369595;19;20028;-61
2024/03/30 05:31:22;;;;;;;17.75;15.93;;;9.60;99.90;;;;;;7358541;19;20545;-62
2024/03/30 05:33:48;;;;;;;17.23;15.43;;;9.60;99.90;;;;;;7360345;19;20830;-61
2024/03/30 05:36:14;;;;;;;18.33;16.42;;;9.60;99.90;;;;;;7361900;19;20023;-62
2024/03/30 05:38:41;;;;;;;18.10;16.17;;;9.60;99.90;;;;;;7360761;19;20117;-63
2024/03/30 05:41:07;;;;;;;19.20;17.20;;;9.60;99.90;;;;;;7367319;19;20527;-63
2024/03/30 05:43:33;;;;;;;20.02;17.95;;;9.60;99.90;;;;;;7368945;19;20376;-61
2024/03/30 05:45:59;;;;;;;20.08;18.00;;;9.60;99.90;;;;;;7368074;19;20022;-61
2024/03/30 05:48:25;;;;;;;19.20;17.20;;;9.60;99.90;;;;;;7370448;19;20023;-63
2024/03/30 05:50:52;;;;;;;19.85;17.63;;;9.60;99.90;;;;;;7367200;19;20029;-63
2024/03/30 05:53:18;;;;;;;20.38;18.30;;;9.60;99.90;;;;;;7367426;19;20011;-63
2024/03/30 05:55:45;;;;;;;19.90;17.98;;;9.60;99.90;;;;;;7371558;19;20752;-63
2024/03/30 05:58:14;;;;;;;21.65;19.35;;;9.60;99.90;;;;;;7364389;19;20036;-62
2024/03/30 06:00:40;;;;;;;20.65;18.55;;;9.60;99.90;;;;;;7371551;19;21351;-63
2024/03/30 06:03:07;;;;;;;21.17;18.98;;;9.60;99.90;;;;;;7364764;19;21473;-64
2024/03/30 06:05:35;;;;;;;20.38;18.38;;;9.60;99.90;;;;;;7368717;19;20090;-63
2024/03/30 06:08:01;;;;;;;21.02;18.92;;;9.60;99.90;;;;;;7365424;19;20018;-61
2024/03/30 06:10:27;;;;;;;22.45;20.10;;;9.60;99.90;;;;;;7368784;19;20018;-63
2024/03/30 06:12:54;;;;;;;22.65;20.10;;;9.60;99.90;;;;;;7363056;19;20637;-61
2024/03/30 06:15:20;;;;;;;23.20;20.73;;;9.60;99.90;;;;;;7367917;19;20675;-60
2024/03/30 06:17:46;;;;;;;22.67;20.23;;;9.60;99.90;;;;;;7368926;19;20397;-62
2024/03/30 06:20:12;;;;;;;21.45;19.27;;;9.60;99.90;;;;;;7369311;19;20612;-61
2024/03/30 06:22:40;;;;;;;22.27;20.05;;;9.60;99.90;;;;;;7372421;19;20025;-62
2024/03/30 06:25:06;;;;;;;22.27;20.00;;;9.60;99.90;;;;;;7370650;19;20030;-64
2024/03/30 06:27:34;;;;;;;21.83;19.52;;;9.60;99.90;;;;;;7369667;19;20053;-64
2024/03/30 06:30:02;;;;;;;23.35;20.88;;;9.60;99.90;;;;;;7372448;19;20865;-64
2024/03/30 06:32:28;;;;;;;22.80;20.40;;;9.60;99.90;;;;;;7373395;19;20490;-62
2024/03/30 06:34:54;;;;;;;22.50;20.00;;;9.60;99.90;;;;;;7370964;19;20018;-64
2024/03/30 06:37:20;;;;;;;21.75;19.42;;;9.60;99.90;;;;;;7372576;19;20524;-61
2024/03/30 06:45:16;;;;;;;22.80;20.35;;;9.60;99.90;;;;;;7371914;19;20028;-62
2024/03/30 06:47:42;;;;;;;23.35;20.58;;;9.70;99.90;;;;;;7369798;19;20096;-63
2024/03/30 06:50:09;;;;;;;22.80;20.50;;;9.70;99.90;;;;;;7371780;19;20705;-64
2024/03/30 06:52:35;;;;;;;23.00;20.13;;;9.70;99.90;;;;;;7374684;19;20022;-64
2024/03/30 06:55:02;;;;;;;19.77;17.50;;;9.80;99.90;;;;;;7373203;19;20046;-63
2024/03/30 06:57:30;;;;;;;21.55;19.23;;;9.90;99.90;;;;;;7371334;19;20040;-65
2024/03/30 06:59:56;;;;;;;21.35;19.00;;;9.90;99.90;;;;;;7374028;19;20706;-64
2024/03/30 07:02:24;;;;;;;19.35;15.73;;;9.90;99.90;;;;;;7374600;19;20048;-64
2024/03/30 07:04:53;;;;;;;18.13;16.23;;;9.90;99.90;;;;;;7365395;19;20037;-66
2024/03/30 07:07:19;;;;;;;21.30;18.35;;;10.00;99.90;;;;;;7372168;19;20019;-64
2024/03/30 07:09:45;;;;;;;17.88;16.02;;;10.00;99.90;;;;;;7370182;19;20033;-62
2024/03/30 07:12:11;;;;;;;16.80;15.00;;;10.10;99.90;;;;;;7372700;19;20483;-64
2024/03/30 07:14:38;;;;;;;18.48;16.63;;;10.20;99.90;;;;;;7369279;19;20085;-61
2024/03/30 07:17:05;;;;;;;16.38;14.65;;;10.20;99.90;;;;;;7371422;19;20018;-62
2024/03/30 07:19:31;;;;;;;16.65;14.93;;;10.30;99.90;;;;;;7369953;19;20044;-64
2024/03/30 07:21:58;;;;;;;16.17;14.60;;;10.40;99.90;;;;;;7368172;19;20046;-62
2024/03/30 07:24:25;;;;;;;14.85;13.35;;;10.50;99.90;;;;;;7371970;19;20125;-62
2024/03/30 07:26:51;;;;;;;15.15;13.60;;;10.60;99.90;;;;;;7366926;19;20033;-61
2024/03/30 07:29:18;;;;;;;14.02;12.63;;;10.70;99.90;;;;;;7369555;19;20025;-62
2024/03/30 07:31:45;;;;;;;13.60;12.20;;;10.90;99.90;;;;;;7368373;19;20077;-62
2024/03/30 07:34:11;;;;;;;13.65;12.25;;;11.10;99.90;;;;;;7364422;19;20121;-62
2024/03/30 07:36:38;;;;;;;17.38;14.25;;;11.20;99.90;;;;;;7374867;19;20128;-62
2024/03/30 07:39:04;;;;;;;13.38;11.70;;;11.30;99.90;;;;;;7370738;19;20011;-61
2024/03/30 07:41:30;;;;;;;16.13;12.90;;;11.40;99.90;;;;;;7370131;19;20023;-62
2024/03/30 07:44:09;;;;;;;12.30;10.90;;;11.40;99.90;;;;;;7370235;19;20014;-64
2024/03/30 07:46:35;;;;;;;15.63;11.15;;;11.50;99.90;;;;;;7363376;19;20018;-63
2024/03/30 07:49:01;;;;;;;12.80;11.45;;;11.50;99.90;;;;;;7364226;19;20022;-65
2024/03/30 07:51:27;;;;;;;13.25;11.10;;;11.50;99.90;;;;;;7371178;19;20022;-62
2024/03/30 07:53:53;;;;;;;13.32;11.02;;;11.60;99.90;;;;;;7365284;19;20022;-64
2024/03/30 07:56:24;;;;;;;14.20;11.70;;;11.80;99.90;;;;;;7372334;19;20022;-61
2024/03/30 07:58:53;;;;;;;12.43;10.53;;;11.90;99.90;;;;;;7371280;19;20034;-62
2024/03/30 08:01:19;;;;;;;15.15;12.68;;;12.00;99.90;;;;;;7362980;19;20019;-61
2024/03/30 08:03:45;;;;;;;12.05;9.48;;;12.00;99.90;;;;;;7367909;19;20014;-63
2024/03/30 08:06:11;;;;;;;12.77;9.73;;;12.10;99.90;;;;;;7369252;19;20136;-61
2024/03/30 08:08:38;;;;;;;11.90;9.40;;;12.10;99.90;;;;;;7366359;19;20014;-61
2024/03/30 08:11:04;;;;;;;21.90;18.80;;;12.10;99.90;;;;;;7366592;19;20022;-65
2024/03/30 08:13:31;;;;;;;13.20;11.07;;;12.10;99.90;;;;;;7365848;19;20044;-63
2024/03/30 08:15:57;;;;;;;9.00;7.57;;;12.20;99.90;;;;;;7362879;19;21030;-61
2024/03/30 08:18:23;;;;;;;10.23;8.43;;;12.20;99.90;;;;;;7370931;19;20034;-62
2024/03/30 08:20:49;;;;;;;9.25;7.78;;;12.30;99.90;;;;;;7371721;19;20077;-62
2024/03/30 08:23:15;;;;;;;9.70;8.02;;;12.40;99.90;;;;;;7363424;19;20719;-61
2024/03/30 08:25:41;;;;;;;9.70;7.78;;;12.50;99.90;;;;;;7368462;19;20030;-62
2024/03/30 08:28:10;;;;;;;8.50;7.50;;;12.60;99.90;;;;;;7368613;19;20034;-62
2024/03/30 08:30:37;;;;;;;9.43;7.32;;;12.60;99.90;;;;;;7370419;19;20014;-61
2024/03/30 08:33:03;;;;;;;8.65;7.57;;;12.60;99.90;;;;;;7371222;19;20041;-62
2024/03/30 08:35:30;;;;;;;8.30;7.15;;;12.80;99.90;;;;;;7370327;19;20014;-63
2024/03/30 08:37:56;;;;;;;8.98;7.15;;;12.90;99.90;;;;;;7372372;19;20042;-62
2024/03/30 08:40:23;;;;;;;8.75;7.20;;;13.20;99.90;;;;;;7362008;19;20025;-62
2024/03/30 08:42:49;;;;;;;8.45;6.20;;;13.50;99.90;;;;;;7370252;19;20026;-62
2024/03/30 08:45:17;;;;;;;7.03;6.13;;;13.70;99.90;;;;;;7367752;19;20098;-62
2024/03/30 08:47:44;;;;;;;7.22;6.03;;;14.00;99.90;;;;;;7369771;19;20109;-61
2024/03/30 08:50:10;;;;;;;8.30;6.10;;;14.20;99.90;;;;;;7365432;19;20018;-62
2024/03/30 08:52:36;;;;;;;7.47;6.35;;;14.40;99.90;;;;;;7368546;19;20035;-62
2024/03/30 08:55:03;;;;;;;6.43;5.40;;;14.50;99.90;;;;;;7367127;19;20014;-62
2024/03/30 08:57:29;;;;;;;6.63;4.60;;;14.60;99.90;;;;;;7370171;19;20074;-62
2024/03/30 08:59:55;;;;;;;4.80;3.65;;;14.90;99.90;;;;;;7367235;19;20118;-63
2024/03/30 09:02:21;;;;;;;5.13;3.60;;;15.10;99.90;;;;;;7370567;19;20022;-63
2024/03/30 09:04:47;;;;;;;5.53;3.10;;;15.20;99.90;;;;;;7366075;19;20015;-64
2024/03/30 09:07:14;;;;;;;4.13;2.88;;;15.20;99.90;;;;;;7366969;19;20149;-61
2024/03/30 09:09:40;;;;;;;4.00;2.70;;;15.40;99.90;;;;;;7367269;19;20023;-61
2024/03/30 09:12:06;;;;;;;5.55;3.00;;;15.30;99.90;;;;;;7362084;19;20040;-63
2024/03/30 09:14:35;;;;;;;5.65;3.22;;;15.10;99.90;;;;;;7371543;19;20022;-61
2024/03/30 09:17:04;;;;;;;2.85;2.55;;;15.40;99.90;;;;;;7374296;19;20113;-63
2024/03/30 09:19:30;;;;;;;4.13;2.80;;;15.70;99.90;;;;;;7370471;19;20714;-62
2024/03/30 09:21:56;;;;;;;3.75;2.90;;;15.90;99.90;;;;;;7375003;19;20398;-62
2024/03/30 09:24:23;;;;;;;3.63;3.00;;;16.00;99.90;;;;;;7369310;19;20014;-62
2024/03/30 09:26:49;;;;;;;8.48;3.70;;;16.20;99.90;;;;;;7376625;19;20014;-62
2024/03/30 09:29:15;;;;;;;3.92;2.85;;;16.10;99.90;;;;;;7377616;19;20118;-61
2024/03/30 09:31:42;;;;;;;2.67;2.22;;;16.00;99.90;;;;;;7377617;19;20014;-62
2024/03/30 09:34:08;;;;;;;3.72;2.90;;;16.10;99.90;;;;;;7376126;19;20026;-63
2024/03/30 09:36:34;;;;;;;4.28;3.33;;;16.00;99.90;;;;;;7377580;19;20029;-62
2024/03/30 09:39:01;;;;;;;3.28;2.83;;;16.50;99.90;;;;;;7377781;19;21032;-61
2024/03/30 09:41:56;;;;;;;5.13;3.25;;;17.00;99.90;;;;;;7377715;19;20018;-63
2024/03/30 09:44:22;;;;;;;3.85;3.17;;;17.50;99.90;;;;;;7373936;19;20049;-63
2024/03/30 09:46:51;;;;;;;5.35;2.78;;;17.90;99.90;;;;;;7375713;19;20023;-63
2024/03/30 09:49:19;;;;;;;4.47;2.60;;;18.00;99.90;;;;;;7375850;19;20383;-63
2024/03/30 09:51:48;;;;;;;6.18;2.90;;;18.20;99.90;;;;;;7377221;19;20022;-61
2024/03/30 09:54:14;;;;;;;5.45;2.90;;;18.60;99.90;;;;;;7373485;19;20061;-62
2024/03/30 09:56:45;;;;;;;4.32;2.90;;;18.60;99.90;;;;;;7376649;19;20018;-61
2024/03/30 09:59:13;;;;;;;7.65;3.15;;;18.90;99.90;;;;;;7375930;19;20037;-61
2024/03/30 10:01:39;;;;;;;4.13;3.00;;;19.20;99.90;;;;;;7375548;19;20371;-62
2024/03/30 10:04:05;;;;;;;6.15;3.03;;;19.40;99.90;;;;;;7376087;19;20090;-62
2024/03/30 10:06:42;;;;;;;7.72;2.83;;;19.40;99.90;;;;;;7374169;19;20018;-61
2024/03/30 10:09:13;;;;;;;6.20;2.97;;;19.20;99.90;;;;;;7374865;19;20018;-61
2024/03/30 10:11:43;;;;;;;6.20;3.10;;;18.90;99.90;;;;;;7376244;19;20396;-61
2024/03/30 10:14:31;;;;;;;5.78;3.03;;;18.60;99.90;;;;;;7377016;19;20018;-63
2024/03/30 10:16:59;;;;;;;6.88;3.45;;;18.50;99.90;;;;;;7375679;19;20025;-63
2024/03/30 10:19:26;;;;;;;9.73;3.28;;;18.10;99.90;;;;;;7377473;19;20022;-61
2024/03/30 10:21:54;;;;;;;8.45;3.25;;;17.70;99.90;;;;;;7380886;19;20041;-63
2024/03/30 10:24:20;;;;;;;6.88;3.38;;;17.40;99.90;;;;;;7374031;19;20021;-63
2024/03/30 10:26:46;;;;;;;7.47;3.47;;;17.40;99.90;;;;;;7375623;19;20119;-61
2024/03/30 10:29:13;;;;;;;7.53;3.60;;;17.60;99.90;;;;;;7375057;19;20023;-61
2024/03/30 10:31:40;;;;;;;10.70;3.15;;;17.40;99.90;;;;;;7378286;19;20487;-61
2024/03/30 10:34:07;;;;;;;8.00;3.88;;;17.20;99.90;;;;;;7375276;19;20015;-61
2024/03/30 10:36:34;;;;;;;7.55;3.20;;;17.00;99.90;;;;;;7378372;19;20104;-61
2024/03/30 10:39:00;;;;;;;11.82;3.53;;;16.70;99.90;;;;;;7376974;19;20011;-62
2024/03/30 10:41:27;;;;;;;16.05;4.07;;;16.40;99.90;;;;;;7372683;19;20015;-62
2024/03/30 10:43:54;;;;;;;9.82;3.67;;;16.20;99.90;;;;;;7373960;19;20078;-62
2024/03/30 10:46:23;;;;;;;8.80;3.80;;;16.20;99.90;;;;;;7369767;19;20057;-61
2024/03/30 10:48:52;;;;;;;11.75;4.25;;;16.10;99.90;;;;;;7377230;19;20023;-62
2024/03/30 10:51:20;;;;;;;10.45;3.80;;;16.00;99.90;;;;;;7372035;19;20052;-62
2024/03/30 10:53:49;;;;;;;9.77;4.18;;;16.00;99.90;;;;;;7377014;19;20477;-63
2024/03/30 10:56:17;;;;;;;10.75;4.47;;;16.00;99.90;;;;;;7372387;19;20028;-62
2024/03/30 10:58:45;;;;;;;12.85;4.85;;;16.20;99.90;;;;;;7373342;19;20035;-63
2024/03/30 11:01:12;;;;;;;16.00;4.00;;;16.60;99.90;;;;;;7370659;19;20030;-63
2024/03/30 11:03:42;;;;;;;14.68;4.03;;;16.90;99.90;;;;;;7374892;19;20053;-65
2024/03/30 11:06:09;;;;;;;8.20;4.05;;;17.30;99.90;;;;;;7372838;19;20023;-63
2024/03/30 11:08:37;;;;;;;14.30;3.83;;;17.40;99.90;;;;;;7371384;19;20118;-63
2024/03/30 11:11:05;;;;;;;17.90;4.55;;;17.70;99.90;;;;;;7375919;19;20029;-63
2024/03/30 11:13:31;;;;;;;18.73;4.28;;;17.70;99.90;;;;;;7375381;19;20030;-63
2024/03/30 11:16:00;;;;;;;14.75;4.40;;;17.70;99.90;;;;;;7373711;19;20023;-63
2024/03/30 11:18:58;;;;;;;12.77;4.05;;;18.00;99.90;;;;;;7374917;19;20610;-62
2024/03/30 11:21:34;;;;;;;13.38;3.60;;;18.20;99.90;;;;;;7367741;19;20034;-63
2024/03/30 11:24:03;;;;;;;16.67;3.95;;;18.40;99.90;;;;;;7373183;19;20909;-63
2024/03/30 11:26:32;;;;;;;16.48;4.05;;;18.30;99.90;;;;;;7367358;19;20493;-64
2024/03/30 11:29:23;;;;;;;10.63;3.60;;;18.20;99.90;;;;;;7372015;19;20029;-61
2024/03/30 11:32:12;;;;;;;12.57;3.15;;;17.80;99.90;;;;;;7365540;19;20616;-63
2024/03/30 11:34:57;;;;;;;16.63;5.03;;;17.70;99.90;;;;;;7368853;19;20048;-62
2024/03/30 11:37:28;;;;;;;12.35;4.65;;;17.40;99.90;;;;;;7370175;19;20025;-61
2024/03/30 11:40:02;;;;;;;17.45;3.80;;;17.00;99.90;;;;;;7360989;19;20074;-61
2024/03/30 11:42:44;;;;;;;19.65;4.53;;;16.90;99.90;;;;;;7371415;19;20760;-61
2024/03/30 11:45:14;;;;;;;18.23;4.32;;;16.70;99.90;;;;;;7369518;19;20018;-61
2024/03/30 11:47:41;;;;;;;15.20;4.05;;;16.50;99.90;;;;;;7370702;19;20019;-61
2024/03/30 11:50:09;;;;;;;14.80;4.03;;;16.40;99.90;;;;;;7373515;19;20019;-61
2024/03/30 11:52:48;;;;;;;15.25;4.30;;;16.30;99.90;;;;;;7373684;19;20014;-61
2024/03/30 11:55:31;;;;;;;17.60;4.05;;;16.30;99.90;;;;;;7371089;19;20015;-62
2024/03/30 11:58:00;;;;;;;18.60;6.10;;;16.30;99.90;;;;;;7367608;19;20019;-62
2024/03/30 12:00:31;;;;;;;14.80;4.55;;;16.30;99.90;;;;;;7369421;19;20098;-62
2024/03/30 12:03:16;;;;;;;16.00;4.07;;;16.30;99.90;;;;;;7369146;19;20029;-61
2024/03/30 12:05:47;;;;;;;15.75;4.43;;;16.40;99.90;;;;;;7366782;19;20641;-62
2024/03/30 12:08:15;;;;;;;16.67;3.47;;;16.40;99.90;;;;;;7364778;19;20396;-61
2024/03/30 12:11:01;;;;;;;14.80;3.67;;;16.40;99.90;;;;;;7369192;19;20032;-62
2024/03/30 12:13:48;;;;;;;19.17;4.75;;;16.50;99.90;;;;;;7370582;19;20018;-62
2024/03/30 12:16:14;;;;;;;20.25;4.13;;;16.50;99.90;;;;;;7362143;19;20019;-63
2024/03/30 12:18:40;;;;;;;19.38;4.03;;;16.50;99.90;;;;;;7370467;19;20467;-61
2024/03/30 12:21:07;;;;;;;14.98;3.70;;;16.60;99.90;;;;;;7365457;19;20018;-63
2024/03/30 12:23:34;;;;;;;15.57;4.90;;;16.60;99.90;;;;;;7369542;19;20030;-61
2024/03/30 12:26:01;;;;;;;20.15;3.47;;;16.70;99.90;;;;;;7360923;19;20033;-62
2024/03/30 12:28:28;;;;;;;25.05;3.92;;;16.60;99.90;;;;;;7367100;19;20017;-62
2024/03/30 12:30:55;;;;;;;15.75;3.72;;;16.70;99.90;;;;;;7366605;19;20029;-62
2024/03/30 12:33:25;;;;;;;13.82;3.60;;;16.60;99.90;;;;;;7362536;19;20047;-61
2024/03/30 12:35:52;;;;;;;15.50;4.13;;;16.60;99.90;;;;;;7370627;19;20088;-62
2024/03/30 12:38:19;;;;;;;19.25;3.78;;;16.50;99.90;;;;;;7363351;19;20026;-62
2024/03/30 12:40:46;;;;;;;15.98;3.60;;;16.50;99.90;;;;;;7371128;19;20026;-61
2024/03/30 12:43:13;;;;;;;18.23;3.88;;;16.60;99.90;;;;;;7366557;19;20034;-61
2024/03/30 12:45:40;;;;;;;15.30;3.88;;;16.80;99.90;;;;;;7367888;19;20023;-61
2024/03/30 12:48:07;;;;;;;21.10;3.33;;;16.90;99.90;;;;;;7364059;19;20022;-61
2024/03/30 12:50:33;;;;;;;19.98;3.45;;;17.00;99.90;;;;;;7375457;19;20023;-61